createdAt,value
2018-01-26T00:00:20.696Z,7.86
2018-01-26T00:02:49.123Z,7.84
2018-01-26T00:05:17.504Z,7.87
2018-01-26T00:07:45.876Z,7.85
2018-01-26T00:10:14.269Z,7.80
2018-01-26T00:12:42.925Z,7.83
2018-01-26T00:15:11.351Z,7.84
2018-01-26T00:17:39.745Z,7.79
2018-01-26T00:20:08.149Z,7.74
2018-01-26T00:22:37.377Z,7.82
2018-01-26T00:25:05.750Z,7.85
2018-01-26T00:27:34.312Z,7.92
2018-01-26T00:30:02.776Z,7.95
2018-01-26T00:32:31.219Z,7.90
2018-01-26T00:34:59.597Z,7.94
2018-01-26T00:37:28.061Z,7.83
2018-01-26T00:39:56.435Z,7.84
2018-01-26T00:42:24.810Z,7.88
2018-01-26T00:44:53.243Z,7.83
2018-01-26T00:47:21.617Z,7.91
2018-01-26T00:49:50.769Z,7.83
2018-01-26T00:52:19.128Z,7.88
2018-01-26T00:54:47.484Z,7.89
2018-01-26T00:57:15.877Z,7.91
2018-01-26T00:59:44.238Z,7.89
2018-01-26T01:02:12.599Z,7.96
2018-01-26T01:04:41.804Z,8.03
2018-01-26T01:07:10.178Z,8.01
2018-01-26T01:09:39.395Z,7.96
2018-01-26T01:12:07.761Z,7.87
2018-01-26T01:14:36.965Z,7.90
2018-01-26T01:17:05.386Z,7.80
2018-01-26T01:19:33.843Z,7.88
2018-01-26T01:22:02.278Z,7.86
2018-01-26T01:24:31.486Z,7.88
2018-01-26T01:27:00.697Z,7.76
2018-01-26T01:29:29.081Z,7.80
2018-01-26T01:31:57.560Z,7.79
2018-01-26T01:34:26.072Z,7.78
2018-01-26T01:36:54.624Z,7.80
2018-01-26T01:39:23.087Z,7.79
2018-01-26T01:41:52.331Z,7.80
2018-01-26T01:44:20.763Z,7.79
2018-01-26T01:46:50.094Z,7.75
2018-01-26T01:49:18.635Z,7.72
2018-01-26T01:51:47.063Z,7.71
2018-01-26T01:54:15.448Z,7.74
2018-01-26T01:56:43.905Z,7.75
2018-01-26T01:59:12.424Z,7.71
2018-01-26T02:01:40.887Z,7.66
2018-01-26T02:04:09.337Z,7.75
2018-01-26T02:06:38.508Z,7.67
2018-01-26T02:09:06.896Z,7.64
2018-01-26T02:11:35.355Z,7.69
2018-01-26T02:14:03.721Z,7.64
2018-01-26T02:16:32.087Z,7.57
2018-01-26T02:19:00.480Z,7.58
2018-01-26T02:21:28.919Z,7.55
2018-01-26T02:23:57.279Z,7.54
2018-01-26T02:26:25.685Z,7.51
2018-01-26T02:28:54.156Z,7.54
2018-01-26T02:31:22.573Z,7.52
2018-01-26T02:33:50.994Z,7.49
2018-01-26T02:36:19.385Z,7.48
2018-01-26T02:38:48.518Z,7.49
2018-01-26T02:41:16.880Z,7.47
2018-01-26T02:43:45.351Z,7.51
2018-01-26T02:46:13.740Z,7.53
2018-01-26T02:48:42.187Z,7.38
2018-01-26T02:51:11.437Z,7.42
2018-01-26T02:53:39.845Z,7.40
2018-01-26T02:56:08.233Z,7.52
2018-01-26T02:58:36.638Z,7.48
2018-01-26T03:01:05.862Z,7.47
2018-01-26T03:03:34.278Z,7.51
2018-01-26T03:06:02.739Z,7.36
2018-01-26T03:08:31.189Z,7.33
2018-01-26T03:11:00.403Z,7.33
2018-01-26T03:13:29.021Z,7.36
2018-01-26T03:15:57.514Z,7.31
2018-01-26T03:18:25.977Z,7.32
2018-01-26T03:20:54.411Z,7.25
2018-01-26T03:23:23.548Z,7.31
2018-01-26T03:25:51.921Z,7.36
2018-01-26T03:28:20.329Z,7.29
2018-01-26T03:30:48.784Z,7.31
2018-01-26T03:33:17.240Z,7.32
2018-01-26T03:35:45.738Z,7.32
2018-01-26T03:38:14.208Z,7.31
2018-01-26T03:40:42.685Z,7.34
2018-01-26T03:43:11.183Z,7.33
2018-01-26T03:45:39.628Z,7.33
2018-01-26T03:48:08.803Z,7.26
2018-01-26T03:50:37.320Z,7.22
2018-01-26T03:53:05.760Z,7.15
2018-01-26T03:55:34.223Z,7.10
2018-01-26T03:58:02.739Z,7.16
2018-01-26T04:00:31.889Z,7.14
2018-01-26T04:03:00.307Z,7.21
2018-01-26T04:05:28.799Z,7.15
2018-01-26T04:07:57.948Z,7.17
2018-01-26T04:10:26.355Z,7.22
2018-01-26T04:12:54.801Z,7.23
2018-01-26T04:15:23.164Z,7.18
2018-01-26T04:17:51.565Z,7.15
2018-01-26T04:20:19.995Z,7.28
2018-01-26T04:22:49.164Z,7.25
2018-01-26T04:25:17.601Z,7.24
2018-01-26T04:27:46.029Z,7.23
2018-01-26T04:30:14.478Z,7.21
2018-01-26T04:32:42.853Z,7.22
2018-01-26T04:35:11.226Z,7.21
2018-01-26T04:37:39.655Z,7.14
2018-01-26T04:40:08.047Z,7.18
2018-01-26T04:42:36.464Z,7.14
2018-01-26T04:45:04.912Z,7.14
2018-01-26T04:47:34.045Z,7.14
2018-01-26T04:50:02.552Z,7.18
2018-01-26T04:52:30.944Z,7.17
2018-01-26T04:54:59.597Z,7.16
2018-01-26T04:57:28.026Z,7.21
2018-01-26T04:59:57.189Z,7.08
2018-01-26T05:02:25.650Z,7.14
2018-01-26T05:04:54.091Z,7.14
2018-01-26T05:07:23.248Z,7.13
2018-01-26T05:09:51.671Z,7.15
2018-01-26T05:12:20.890Z,7.14
2018-01-26T05:14:49.464Z,7.20
2018-01-26T05:17:17.832Z,7.18
2018-01-26T05:19:47.030Z,7.16
2018-01-26T05:22:16.276Z,7.21
2018-01-26T05:24:44.740Z,7.19
2018-01-26T05:27:13.163Z,7.06
2018-01-26T05:29:41.545Z,7.10
2018-01-26T05:32:09.975Z,7.15
2018-01-26T05:34:38.360Z,7.14
2018-01-26T05:37:06.799Z,6.98
2018-01-26T05:39:35.242Z,6.92
2018-01-26T05:42:03.697Z,6.90
2018-01-26T05:44:32.183Z,6.97
2018-01-26T05:47:00.657Z,6.91
2018-01-26T05:49:29.050Z,6.93
2018-01-26T05:51:57.417Z,6.94
2018-01-26T05:54:25.891Z,6.90
2018-01-26T05:56:54.333Z,6.87
2018-01-26T05:59:22.791Z,6.87
2018-01-26T06:01:51.310Z,6.76
2018-01-26T06:04:20.547Z,6.71
2018-01-26T06:06:48.974Z,6.71
2018-01-26T06:09:17.420Z,6.75
2018-01-26T06:11:45.788Z,6.70
2018-01-26T06:14:14.227Z,6.73
2018-01-26T06:16:43.455Z,6.66
2018-01-26T06:19:11.914Z,6.66
2018-01-26T06:21:40.375Z,6.66
2018-01-26T06:24:08.813Z,6.68
2018-01-26T06:26:37.149Z,6.66
2018-01-26T06:29:05.557Z,6.67
2018-01-26T06:31:33.999Z,6.69
2018-01-26T06:34:02.436Z,6.68
2018-01-26T06:36:30.902Z,6.69
2018-01-26T06:38:59.328Z,6.75
2018-01-26T06:41:27.771Z,6.74
2018-01-26T06:43:56.229Z,6.69
2018-01-26T06:46:24.652Z,6.71
2018-01-26T06:48:53.020Z,6.67
2018-01-26T06:51:21.475Z,6.75
2018-01-26T06:53:49.903Z,6.76
2018-01-26T06:56:18.282Z,6.83
2018-01-26T06:58:46.648Z,6.86
2018-01-26T07:01:15.092Z,6.90
2018-01-26T07:03:43.559Z,6.77
2018-01-26T07:06:12.751Z,6.82
2018-01-26T07:08:41.916Z,6.76
2018-01-26T07:11:10.277Z,6.85
2018-01-26T07:13:38.628Z,6.83
2018-01-26T07:16:07.006Z,6.83
2018-01-26T07:18:35.369Z,6.85
2018-01-26T07:21:04.509Z,6.92
2018-01-26T07:23:32.881Z,6.93
2018-01-26T07:26:01.366Z,6.82
2018-01-26T07:28:29.753Z,6.87
2018-01-26T07:30:58.113Z,6.89
2018-01-26T07:33:26.559Z,6.88
2018-01-26T07:35:55.036Z,6.83
2018-01-26T07:38:24.899Z,6.88
2018-01-26T07:40:53.264Z,6.91
2018-01-26T07:43:21.632Z,6.93
2018-01-26T07:45:49.992Z,6.99
2018-01-26T07:48:19.218Z,7.00
2018-01-26T07:50:47.584Z,7.06
2018-01-26T07:53:16.003Z,6.99
2018-01-26T07:55:44.473Z,6.99
2018-01-26T07:58:12.840Z,7.02
2018-01-26T08:00:41.259Z,6.97
2018-01-26T08:03:09.719Z,7.00
2018-01-26T08:05:38.151Z,7.00
2018-01-26T08:08:07.441Z,7.02
2018-01-26T08:10:35.859Z,6.95
2018-01-26T08:13:04.221Z,7.06
2018-01-26T08:15:32.613Z,7.05
2018-01-26T08:18:01.035Z,7.11
2018-01-26T08:20:29.417Z,7.09
2018-01-26T08:22:57.788Z,7.17
2018-01-26T08:25:26.149Z,7.14
2018-01-26T08:27:54.591Z,7.27
2018-01-26T08:30:23.025Z,7.44
2018-01-26T08:32:51.477Z,7.44
2018-01-26T08:35:19.852Z,7.44
2018-01-26T08:37:48.271Z,7.60
2018-01-26T08:40:16.708Z,7.67
2018-01-26T08:42:45.143Z,7.66
2018-01-26T08:45:13.607Z,7.65
2018-01-26T08:47:41.996Z,7.67
2018-01-26T08:50:10.420Z,7.67
2018-01-26T08:52:38.870Z,7.84
2018-01-26T08:58:05.940Z,7.70
2018-01-26T09:00:34.348Z,7.77
2018-01-26T09:03:02.759Z,7.71
2018-01-26T09:05:31.166Z,7.78
2018-01-26T09:07:59.552Z,7.91
2018-01-26T09:10:27.914Z,7.99
2018-01-26T09:12:56.341Z,7.94
2018-01-26T09:15:24.795Z,7.84
2018-01-26T09:17:53.175Z,7.90
2018-01-26T09:20:21.687Z,8.02
2018-01-26T09:22:50.193Z,7.97
2018-01-26T09:25:18.628Z,8.01
2018-01-26T09:27:47.167Z,8.04
2018-01-26T09:30:15.750Z,8.16
2018-01-26T09:32:44.220Z,8.03
2018-01-26T09:35:12.675Z,8.08
2018-01-26T09:37:41.092Z,8.21
2018-01-26T09:40:09.511Z,8.20
2018-01-26T09:42:37.893Z,8.21
2018-01-26T09:45:06.423Z,8.23
2018-01-26T09:47:34.878Z,8.16
2018-01-26T09:50:04.101Z,8.25
2018-01-26T09:52:32.480Z,8.28
2018-01-26T09:55:00.853Z,8.42
2018-01-26T09:57:30.064Z,8.33
2018-01-26T09:59:58.432Z,8.08
2018-01-26T10:02:27.721Z,8.08
2018-01-26T10:04:56.868Z,8.31
2018-01-26T10:07:25.312Z,8.61
2018-01-26T10:09:53.778Z,8.47
2018-01-26T10:12:22.307Z,8.51
2018-01-26T10:14:50.722Z,8.64
2018-01-26T10:17:19.923Z,8.75
2018-01-26T10:19:49.163Z,8.34
2018-01-26T10:22:17.600Z,8.25
2018-01-26T10:24:46.120Z,8.27
2018-01-26T10:27:14.704Z,8.49
2018-01-26T10:29:43.171Z,8.49
2018-01-26T10:32:11.768Z,8.74
2018-01-26T10:34:40.240Z,8.61
2018-01-26T10:37:08.688Z,8.53
2018-01-26T10:39:37.054Z,8.68
2018-01-26T10:42:05.431Z,8.54
2018-01-26T10:44:33.899Z,8.58
2018-01-26T10:47:02.337Z,8.62
2018-01-26T10:49:30.717Z,8.73
2018-01-26T10:51:59.183Z,9.06
2018-01-26T10:54:28.329Z,9.11
2018-01-26T10:56:56.703Z,9.24
2018-01-26T10:59:25.258Z,9.32
2018-01-26T11:01:53.715Z,9.55
2018-01-26T11:04:22.929Z,9.53
2018-01-26T11:06:51.300Z,9.49
2018-01-26T11:09:20.436Z,9.12
2018-01-26T11:11:48.830Z,9.23
2018-01-26T11:14:17.364Z,8.91
2018-01-26T11:16:45.750Z,9.12
2018-01-26T11:19:14.149Z,9.34
2018-01-26T11:21:42.511Z,9.37
2018-01-26T11:24:10.952Z,8.88
2018-01-26T11:26:40.084Z,8.66
2018-01-26T11:29:08.630Z,8.74
2018-01-26T11:31:37.828Z,8.69
2018-01-26T11:34:07.172Z,8.91
2018-01-26T11:36:35.563Z,9.03
2018-01-26T11:39:03.920Z,9.02
2018-01-26T11:41:32.364Z,8.82
2018-01-26T11:44:01.504Z,9.16
2018-01-26T11:46:29.869Z,9.09
2018-01-26T11:48:58.337Z,9.38
2018-01-26T11:51:27.473Z,9.60
2018-01-26T11:53:55.860Z,9.58
2018-01-26T11:56:24.241Z,9.28
2018-01-26T11:58:52.605Z,9.34
2018-01-26T12:01:20.990Z,9.42
2018-01-26T12:03:49.406Z,9.00
2018-01-26T12:06:17.892Z,8.87
2018-01-26T12:08:47.103Z,9.10
2018-01-26T12:11:15.479Z,8.96
2018-01-26T12:13:44.778Z,9.30
2018-01-26T12:16:13.894Z,9.63
2018-01-26T12:18:42.313Z,9.39
2018-01-26T12:21:10.712Z,10.03
2018-01-26T12:23:39.077Z,11.04
2018-01-26T12:26:07.499Z,10.51
2018-01-26T12:28:35.888Z,10.54
2018-01-26T12:31:04.276Z,10.38
2018-01-26T12:33:32.704Z,9.92
2018-01-26T12:36:01.081Z,9.77
2018-01-26T12:38:29.583Z,9.75
2018-01-26T12:40:58.808Z,9.40
2018-01-26T12:43:27.226Z,9.15
2018-01-26T12:45:55.609Z,9.11
2018-01-26T12:48:23.994Z,9.12
2018-01-26T12:50:52.546Z,9.24
2018-01-26T12:53:21.066Z,9.21
2018-01-26T12:55:49.509Z,9.16
2018-01-26T12:58:18.042Z,9.27
2018-01-26T13:00:47.250Z,9.19
2018-01-26T13:03:15.669Z,9.39
2018-01-26T13:05:44.032Z,9.42
2018-01-26T13:08:12.409Z,9.61
2018-01-26T13:10:40.797Z,9.66
2018-01-26T13:13:09.194Z,9.68
2018-01-26T13:15:37.548Z,9.28
2018-01-26T13:18:06.024Z,9.43
2018-01-26T13:20:34.491Z,9.14
2018-01-26T13:23:03.003Z,8.99
2018-01-26T13:25:31.480Z,9.09
2018-01-26T13:27:59.985Z,8.98
2018-01-26T13:30:28.544Z,8.99
2018-01-26T13:32:56.921Z,9.05
2018-01-26T13:35:25.371Z,9.27
2018-01-26T13:37:53.866Z,9.33
2018-01-26T13:40:22.252Z,9.25
2018-01-26T13:42:50.630Z,8.94
2018-01-26T13:45:19.018Z,8.93
2018-01-26T13:47:47.437Z,9.00
2018-01-26T13:50:15.923Z,9.19
2018-01-26T13:52:45.176Z,9.12
2018-01-26T13:55:13.613Z,9.10
2018-01-26T13:57:41.976Z,9.10
2018-01-26T14:00:10.426Z,9.33
2018-01-26T14:02:38.809Z,9.28
2018-01-26T14:05:07.270Z,9.31
2018-01-26T14:07:35.836Z,9.19
2018-01-26T14:10:04.257Z,9.04
2018-01-26T14:12:32.693Z,9.11
2018-01-26T14:15:01.052Z,9.05
2018-01-26T14:17:30.386Z,8.98
2018-01-26T14:19:58.836Z,8.93
2018-01-26T14:22:28.004Z,8.89
2018-01-26T14:24:56.355Z,8.82
2018-01-26T14:27:24.830Z,8.82
2018-01-26T14:29:53.294Z,8.83
2018-01-26T14:32:21.737Z,8.83
2018-01-26T14:34:50.951Z,8.77
2018-01-26T14:37:19.442Z,8.78
2018-01-26T14:39:47.881Z,8.82
2018-01-26T14:42:16.582Z,8.88
2018-01-26T14:44:45.820Z,8.87
2018-01-26T14:47:14.190Z,8.89
2018-01-26T14:49:42.650Z,8.84
2018-01-26T14:52:11.821Z,8.79
2018-01-26T14:54:40.260Z,8.75
2018-01-26T14:57:08.690Z,8.60
2018-01-26T14:59:37.853Z,8.68
2018-01-26T15:02:06.367Z,8.54
2018-01-26T15:04:34.802Z,8.59
2018-01-26T15:07:03.199Z,8.47
2018-01-26T15:09:31.566Z,8.43
2018-01-26T15:12:00.005Z,8.43
2018-01-26T15:14:28.400Z,8.35
2018-01-26T15:16:56.864Z,8.32
2018-01-26T15:19:25.356Z,8.30
2018-01-26T15:21:53.839Z,8.29
2018-01-26T15:24:22.231Z,8.63
2018-01-26T15:26:50.655Z,8.49
2018-01-26T15:29:19.032Z,8.47
2018-01-26T15:31:47.487Z,8.48
2018-01-26T15:34:15.865Z,8.45
2018-01-26T15:36:44.432Z,8.49
2018-01-26T15:39:12.967Z,8.47
2018-01-26T15:41:42.110Z,8.44
2018-01-26T15:44:10.687Z,8.46
2018-01-26T15:46:39.057Z,8.39
2018-01-26T15:49:07.495Z,8.34
2018-01-26T15:51:36.191Z,8.37
2018-01-26T15:54:05.452Z,8.36
2018-01-26T15:56:33.891Z,8.29
2018-01-26T15:59:02.292Z,8.29
2018-01-26T16:01:30.679Z,8.28
2018-01-26T16:03:59.117Z,8.12
2018-01-26T16:06:28.321Z,8.17
2018-01-26T16:08:56.782Z,8.13
2018-01-26T16:11:26.012Z,8.10
2018-01-26T16:13:54.546Z,8.06
2018-01-26T16:16:23.043Z,8.06
2018-01-26T16:18:52.189Z,8.10
2018-01-26T16:21:20.625Z,8.12
2018-01-26T16:23:49.766Z,8.16
2018-01-26T16:26:18.290Z,8.14
2018-01-26T16:28:47.468Z,8.17
2018-01-26T16:31:15.895Z,8.08
2018-01-26T16:33:44.284Z,8.04
2018-01-26T16:36:12.751Z,8.02
2018-01-26T16:38:41.311Z,8.04
2018-01-26T16:41:10.445Z,7.96
2018-01-26T16:43:38.899Z,7.96
2018-01-26T16:46:08.066Z,7.98
2018-01-26T16:48:36.629Z,8.03
2018-01-26T16:51:05.183Z,8.04
2018-01-26T16:53:33.635Z,8.09
2018-01-26T16:56:02.932Z,8.02
2018-01-26T16:58:32.128Z,7.99
2018-01-26T17:01:01.329Z,7.96
2018-01-26T17:03:29.794Z,7.91
2018-01-26T17:05:58.178Z,7.83
2018-01-26T17:08:26.659Z,7.85
2018-01-26T17:10:55.540Z,7.89
2018-01-26T17:13:24.793Z,7.95
2018-01-26T17:15:53.181Z,7.97
2018-01-26T17:18:21.585Z,7.92
2018-01-26T17:20:49.988Z,7.92
2018-01-26T17:23:18.516Z,7.90
2018-01-26T17:25:46.988Z,7.87
2018-01-26T17:28:15.354Z,7.80
2018-01-26T17:30:44.583Z,7.85
2018-01-26T17:33:12.970Z,7.82
2018-01-26T17:35:41.407Z,7.81
2018-01-26T17:38:10.621Z,7.74
2018-01-26T17:40:39.009Z,7.75
2018-01-26T17:43:07.412Z,7.73
2018-01-26T17:45:36.091Z,7.70
2018-01-26T17:48:04.500Z,7.67
2018-01-26T17:50:32.927Z,7.67
2018-01-26T17:53:01.356Z,8.32
2018-01-26T17:55:29.724Z,9.15
2018-01-26T17:57:58.096Z,8.48
2018-01-26T18:00:26.468Z,8.19
2018-01-26T18:02:54.899Z,8.00
2018-01-26T18:05:23.328Z,7.97
2018-01-26T18:07:51.788Z,8.00
2018-01-26T18:10:20.246Z,8.04
2018-01-26T18:12:48.622Z,8.03
2018-01-26T18:15:17.836Z,7.96
2018-01-26T18:17:46.339Z,7.88
2018-01-26T18:20:14.782Z,7.79
2018-01-26T18:22:43.159Z,7.75
2018-01-26T18:25:12.359Z,7.72
2018-01-26T18:27:40.822Z,7.68
2018-01-26T18:30:09.334Z,7.67
2018-01-26T18:32:37.716Z,7.63
2018-01-26T18:35:06.070Z,9.79
2018-01-26T18:37:35.299Z,8.59
2018-01-26T18:40:03.748Z,8.10
2018-01-26T18:42:32.971Z,7.93
2018-01-26T18:45:01.583Z,7.86
2018-01-26T18:47:29.968Z,7.82
2018-01-26T18:49:58.362Z,7.71
2018-01-26T18:52:26.728Z,7.63
2018-01-26T18:54:55.106Z,7.52
2018-01-26T18:57:23.639Z,7.59
2018-01-26T18:59:52.033Z,7.52
2018-01-26T19:02:20.446Z,7.53
2018-01-26T19:04:48.921Z,7.49
2018-01-26T19:07:17.286Z,7.59
2018-01-26T19:09:45.672Z,7.56
2018-01-26T19:12:14.075Z,7.55
2018-01-26T19:14:42.699Z,7.50
2018-01-26T19:17:11.127Z,7.51
2018-01-26T19:19:39.549Z,7.48
2018-01-26T19:22:08.782Z,7.52
2018-01-26T19:24:37.264Z,7.60
2018-01-26T19:27:05.708Z,7.70
2018-01-26T19:29:34.909Z,7.73
2018-01-26T19:32:03.324Z,7.67
2018-01-26T19:34:31.807Z,7.58
2018-01-26T19:37:00.260Z,7.43
2018-01-26T19:39:28.762Z,7.43
2018-01-26T19:41:57.450Z,7.45
2018-01-26T19:44:26.788Z,7.46
2018-01-26T19:46:56.795Z,7.45
2018-01-26T19:49:25.209Z,7.44
2018-01-26T19:51:54.435Z,7.45
2018-01-26T19:54:22.955Z,7.43
2018-01-26T19:56:51.420Z,7.43
2018-01-26T19:59:19.874Z,7.31
2018-01-26T20:01:48.507Z,7.25
2018-01-26T20:07:29.033Z,7.06
2018-01-26T20:09:57.419Z,7.13
2018-01-26T20:12:25.841Z,7.12
2018-01-26T20:14:54.301Z,7.10
2018-01-26T20:17:22.803Z,7.06
2018-01-26T20:19:52.055Z,6.98
2018-01-26T20:22:20.457Z,6.93
2018-01-26T20:24:49.705Z,6.87
2018-01-26T20:27:18.235Z,6.87
2018-01-26T20:29:47.279Z,6.66
2018-01-26T20:32:20.541Z,6.80
2018-01-26T20:34:49.000Z,6.75
2018-01-26T20:37:17.480Z,6.67
2018-01-26T20:39:45.927Z,6.67
2018-01-26T20:42:14.406Z,6.68
2018-01-26T20:44:42.850Z,6.72
2018-01-26T20:47:12.065Z,6.71
2018-01-26T20:49:40.570Z,6.68
2018-01-26T20:52:09.007Z,6.71
2018-01-26T20:54:37.554Z,6.64
2018-01-26T20:57:05.992Z,6.62
2018-01-26T20:59:35.212Z,6.67
2018-01-26T21:02:03.615Z,6.65
2018-01-26T21:04:32.050Z,6.64
2018-01-26T21:07:01.283Z,6.66
2018-01-26T21:09:29.661Z,6.66
2018-01-26T21:11:58.073Z,6.79
2018-01-26T21:14:26.586Z,6.88
2018-01-26T21:16:55.047Z,6.91
2018-01-26T21:19:24.217Z,6.93
2018-01-26T21:21:52.680Z,6.91
2018-01-26T21:24:21.124Z,6.82
2018-01-26T21:26:49.573Z,6.78
2018-01-26T21:29:18.046Z,6.77
2018-01-26T21:31:46.475Z,6.75
2018-01-26T21:34:14.868Z,6.71
2018-01-26T21:36:43.321Z,6.63
2018-01-26T21:39:11.695Z,6.65
2018-01-26T21:41:40.900Z,6.63
2018-01-26T21:44:10.142Z,6.62
2018-01-26T21:46:38.642Z,6.61
2018-01-26T21:49:07.056Z,6.63
2018-01-26T21:51:36.281Z,6.58
2018-01-26T21:54:04.711Z,6.55
2018-01-26T21:56:33.220Z,6.55
2018-01-26T21:59:01.673Z,6.50
2018-01-26T22:01:30.157Z,6.48
2018-01-26T22:03:59.556Z,6.48
2018-01-26T22:06:33.521Z,6.51
2018-01-26T22:09:01.970Z,6.50
2018-01-26T22:11:31.242Z,6.53
2018-01-26T22:13:59.744Z,6.47
2018-01-26T22:16:28.211Z,6.41
2018-01-26T22:18:56.770Z,6.37
2018-01-26T22:21:25.191Z,6.43
2018-01-26T22:23:54.572Z,6.39
2018-01-26T22:26:23.012Z,6.39
2018-01-26T22:28:51.455Z,6.42
2018-01-26T22:31:20.748Z,6.38
2018-01-26T22:33:49.279Z,6.37
2018-01-26T22:36:17.795Z,6.27
2018-01-26T22:38:46.275Z,6.27
2018-01-26T22:41:14.721Z,6.23
2018-01-26T22:43:43.123Z,6.24
2018-01-26T22:46:11.603Z,6.21
2018-01-26T22:48:40.088Z,6.18
2018-01-26T22:51:08.573Z,6.21
2018-01-26T22:53:37.008Z,6.23
2018-01-26T22:56:05.409Z,6.31
2018-01-26T22:58:33.915Z,6.34
2018-01-26T23:01:03.171Z,6.37
2018-01-26T23:03:31.722Z,6.39
2018-01-26T23:06:00.097Z,6.41
2018-01-26T23:08:28.479Z,6.43
2018-01-26T23:10:56.961Z,6.45
2018-01-26T23:13:26.146Z,6.33
2018-01-26T23:15:54.598Z,6.18
2018-01-26T23:18:22.997Z,6.13
2018-01-26T23:20:51.430Z,6.04
2018-01-26T23:23:20.044Z,6.04
2018-01-26T23:25:48.492Z,6.04
2018-01-26T23:28:16.908Z,5.97
2018-01-26T23:30:46.197Z,5.95
2018-01-26T23:33:14.627Z,5.94
2018-01-26T23:35:43.082Z,5.94
2018-01-26T23:38:11.488Z,5.84
2018-01-26T23:40:40.031Z,5.88
2018-01-26T23:43:08.582Z,5.74
2018-01-26T23:45:36.971Z,5.64
2018-01-26T23:48:05.386Z,5.62
2018-01-26T23:50:33.833Z,5.53
2018-01-26T23:53:02.295Z,5.46
2018-01-26T23:55:30.835Z,5.37
2018-01-26T23:57:59.248Z,5.34
